createdAt,value
2023-04-09T00:02:18.231Z,16.13
2023-04-09T00:04:45.822Z,15.13
2023-04-09T00:07:13.212Z,16.02
2023-04-09T00:09:40.703Z,15.35
2023-04-09T00:12:08.048Z,16.65
2023-04-09T00:14:35.477Z,15.25
2023-04-09T00:17:02.906Z,16.20
2023-04-09T00:19:30.248Z,15.38
2023-04-09T00:21:57.578Z,15.25
2023-04-09T00:24:24.904Z,15.38
2023-04-09T00:26:53.673Z,14.80
2023-04-09T00:29:21.298Z,15.82
2023-04-09T00:31:48.732Z,14.82
2023-04-09T00:34:16.097Z,15.02
2023-04-09T00:36:43.470Z,13.45
2023-04-09T00:39:11.179Z,16.15
2023-04-09T00:41:38.571Z,15.45
2023-04-09T00:44:06.076Z,16.42
2023-04-09T00:46:33.463Z,14.77
2023-04-09T00:49:01.049Z,14.90
2023-04-09T00:51:29.023Z,15.95
2023-04-09T00:53:56.882Z,14.25
2023-04-09T00:56:25.120Z,14.30
2023-04-09T00:58:52.878Z,14.63
2023-04-09T01:01:20.601Z,14.73
2023-04-09T01:03:48.344Z,14.80
2023-04-09T01:06:28.108Z,15.40
2023-04-09T01:09:09.162Z,13.90
2023-04-09T01:11:39.410Z,15.50
2023-04-09T01:14:06.800Z,14.30
2023-04-09T01:16:37.833Z,14.15
2023-04-09T01:19:11.475Z,15.93
2023-04-09T01:21:40.538Z,15.10
2023-04-09T01:24:26.506Z,14.70
2023-04-09T01:26:58.525Z,15.18
2023-04-09T01:29:26.441Z,15.07
2023-04-09T01:31:55.153Z,15.05
2023-04-09T01:34:23.097Z,14.50
2023-04-09T01:36:53.072Z,15.93
2023-04-09T01:39:20.625Z,14.63
2023-04-09T01:41:48.499Z,15.52
2023-04-09T01:44:16.737Z,16.58
2023-04-09T01:46:44.154Z,15.20
2023-04-09T01:49:12.025Z,15.00
2023-04-09T01:51:39.716Z,15.60
2023-04-09T01:54:07.113Z,14.18
2023-04-09T01:56:44.622Z,13.85
2023-04-09T01:59:12.217Z,14.82
2023-04-09T02:01:47.118Z,14.93
2023-04-09T02:04:20.989Z,14.43
2023-04-09T02:06:58.894Z,15.95
2023-04-09T02:09:28.493Z,14.30
2023-04-09T02:11:58.050Z,15.55
2023-04-09T02:14:26.809Z,14.77
2023-04-09T02:16:54.439Z,12.82
2023-04-09T02:19:21.775Z,13.60
2023-04-09T02:21:49.082Z,15.73
2023-04-09T02:24:16.410Z,13.95
2023-04-09T02:26:43.711Z,13.05
2023-04-09T02:29:11.162Z,14.02
2023-04-09T02:31:38.518Z,15.18
2023-04-09T02:34:05.972Z,13.73
2023-04-09T02:36:33.320Z,13.70
2023-04-09T02:39:00.640Z,14.00
2023-04-09T02:41:28.025Z,14.10
2023-04-09T02:43:55.686Z,14.57
2023-04-09T02:46:23.037Z,13.93
2023-04-09T02:48:50.716Z,14.25
2023-04-09T02:51:18.246Z,15.45
2023-04-09T02:53:45.805Z,13.45
2023-04-09T02:56:13.248Z,13.35
2023-04-09T02:58:40.620Z,16.27
2023-04-09T03:01:08.047Z,13.32
2023-04-09T03:03:35.544Z,13.40
2023-04-09T03:06:02.916Z,14.13
2023-04-09T03:08:30.336Z,14.23
2023-04-09T03:10:57.657Z,14.18
2023-04-09T03:13:25.068Z,14.98
2023-04-09T03:15:55.796Z,12.43
2023-04-09T03:18:23.230Z,12.77
2023-04-09T03:20:50.607Z,13.02
2023-04-09T03:23:18.260Z,12.85
2023-04-09T03:25:45.687Z,13.52
2023-04-09T03:28:13.027Z,13.18
2023-04-09T03:30:40.340Z,12.90
2023-04-09T03:33:07.697Z,12.65
2023-04-09T03:35:35.158Z,12.48
2023-04-09T03:38:02.486Z,12.25
2023-04-09T03:40:29.824Z,11.63
2023-04-09T03:42:57.166Z,10.88
2023-04-09T03:45:24.521Z,12.23
2023-04-09T03:47:51.946Z,10.90
2023-04-09T03:50:20.704Z,10.50
2023-04-09T03:52:48.170Z,11.70
2023-04-09T03:55:15.668Z,11.52
2023-04-09T03:57:43.084Z,10.60
2023-04-09T04:00:10.512Z,10.70
2023-04-09T04:02:38.126Z,11.85
2023-04-09T04:05:05.812Z,10.82
2023-04-09T04:07:33.578Z,10.55
2023-04-09T04:10:00.982Z,12.13
2023-04-09T04:12:28.304Z,12.15
2023-04-09T04:14:55.807Z,11.70
2023-04-09T04:17:23.203Z,11.57
2023-04-09T04:19:50.615Z,10.65
2023-04-09T04:22:17.937Z,11.65
2023-04-09T04:24:45.288Z,11.50
2023-04-09T04:27:12.630Z,12.27
2023-04-09T04:29:40.017Z,12.27
2023-04-09T04:32:07.483Z,10.52
2023-04-09T04:34:34.983Z,10.82
2023-04-09T04:37:02.306Z,11.00
2023-04-09T04:39:31.552Z,11.00
2023-04-09T04:41:58.870Z,9.43
2023-04-09T04:44:26.228Z,10.63
2023-04-09T04:46:53.521Z,11.20
2023-04-09T04:49:20.874Z,10.40
2023-04-09T04:51:48.219Z,12.00
2023-04-09T04:54:15.706Z,10.80
2023-04-09T04:56:43.007Z,10.55
2023-04-09T04:59:10.471Z,10.82
2023-04-09T05:01:38.058Z,11.13
2023-04-09T05:04:05.731Z,10.70
2023-04-09T05:06:33.860Z,11.32
2023-04-09T05:09:01.779Z,10.98
2023-04-09T05:11:29.267Z,10.50
2023-04-09T05:13:56.752Z,11.35
2023-04-09T05:16:24.769Z,11.85
2023-04-09T05:18:52.371Z,10.90
2023-04-09T05:21:19.918Z,10.68
2023-04-09T05:23:47.277Z,11.07
2023-04-09T05:26:14.596Z,11.35
2023-04-09T05:28:42.797Z,11.93
2023-04-09T05:31:13.390Z,10.70
2023-04-09T05:33:41.143Z,12.73
2023-04-09T05:36:08.813Z,13.63
2023-04-09T05:38:36.220Z,12.15
2023-04-09T05:41:03.614Z,12.38
2023-04-09T05:43:30.982Z,13.10
2023-04-09T05:45:58.363Z,11.98
2023-04-09T05:48:25.780Z,12.65
2023-04-09T05:50:55.373Z,12.13
2023-04-09T05:53:23.451Z,11.70
2023-04-09T05:55:50.872Z,12.23
2023-04-09T05:58:19.091Z,12.38
2023-04-09T06:00:46.406Z,12.45
2023-04-09T06:03:13.868Z,12.65
2023-04-09T06:05:41.430Z,12.55
2023-04-09T06:08:08.807Z,12.68
2023-04-09T06:10:36.365Z,13.13
2023-04-09T06:13:03.764Z,14.13
2023-04-09T06:15:31.148Z,12.57
2023-04-09T06:17:59.545Z,13.65
2023-04-09T06:20:26.897Z,12.82
2023-04-09T06:22:54.267Z,12.57
2023-04-09T06:25:21.730Z,12.82
2023-04-09T06:27:49.058Z,13.60
2023-04-09T06:30:16.472Z,13.90
2023-04-09T06:32:54.247Z,14.13
2023-04-09T06:35:22.703Z,15.40
2023-04-09T06:37:50.086Z,14.75
2023-04-09T06:40:17.503Z,13.77
2023-04-09T06:42:44.805Z,16.25
2023-04-09T06:45:12.437Z,15.93
2023-04-09T06:47:39.944Z,14.65
2023-04-09T06:50:07.632Z,15.07
2023-04-09T06:52:34.986Z,14.52
2023-04-09T06:55:02.304Z,19.48
2023-04-09T06:57:29.679Z,17.83
2023-04-09T06:59:56.994Z,16.02
2023-04-09T07:02:24.523Z,16.50
2023-04-09T07:04:51.989Z,15.48
2023-04-09T07:07:21.080Z,17.45
2023-04-09T07:09:49.029Z,17.83
2023-04-09T07:12:16.650Z,22.67
2023-04-09T07:14:43.957Z,28.25
2023-04-09T07:17:11.321Z,26.85
2023-04-09T07:19:38.673Z,27.15
2023-04-09T07:22:06.093Z,29.75
2023-04-09T07:24:33.681Z,25.65
2023-04-09T07:27:04.421Z,27.63
2023-04-09T07:29:31.804Z,23.85
2023-04-09T07:32:01.402Z,26.20
2023-04-09T07:34:28.851Z,25.05
2023-04-09T07:36:56.209Z,29.25
2023-04-09T07:39:23.901Z,28.20
2023-04-09T07:41:51.602Z,24.20
2023-04-09T07:44:18.944Z,23.77
2023-04-09T07:46:46.418Z,26.92
2023-04-09T07:49:13.799Z,24.00
2023-04-09T07:51:41.271Z,23.30
2023-04-09T07:54:09.183Z,24.70
2023-04-09T07:56:36.543Z,25.05
2023-04-09T07:59:03.938Z,26.02
2023-04-09T08:01:31.576Z,24.20
2023-04-09T08:03:59.083Z,24.75
2023-04-09T08:06:27.225Z,24.10
2023-04-09T08:08:54.876Z,24.38
2023-04-09T08:11:25.457Z,23.52
2023-04-09T08:13:56.266Z,27.77
2023-04-09T08:16:24.774Z,24.30
2023-04-09T08:18:52.499Z,25.13
2023-04-09T08:21:20.713Z,21.83
2023-04-09T08:23:48.050Z,24.80
2023-04-09T08:26:15.569Z,22.63
2023-04-09T08:28:43.133Z,21.45
2023-04-09T08:31:10.783Z,21.50
2023-04-09T08:33:38.160Z,18.48
2023-04-09T08:36:09.267Z,18.45
2023-04-09T08:38:37.252Z,19.05
2023-04-09T08:41:04.648Z,17.63
2023-04-09T08:43:52.524Z,19.45
2023-04-09T08:46:21.444Z,20.23
2023-04-09T08:48:49.848Z,20.70
2023-04-09T08:51:18.147Z,19.48
2023-04-09T08:53:50.684Z,17.13
2023-04-09T08:56:18.252Z,19.67
2023-04-09T08:58:46.409Z,21.80
2023-04-09T09:01:32.717Z,19.95
2023-04-09T09:04:01.422Z,18.88
2023-04-09T09:06:30.266Z,20.23
2023-04-09T09:09:05.760Z,21.10
2023-04-09T09:11:33.884Z,22.20
2023-04-09T09:14:07.293Z,21.52
2023-04-09T09:16:35.932Z,20.85
2023-04-09T09:19:03.577Z,20.70
2023-04-09T09:21:31.035Z,21.33
2023-04-09T09:23:59.053Z,18.67
2023-04-09T09:26:27.679Z,21.60
2023-04-09T09:28:55.426Z,21.73
2023-04-09T09:31:24.135Z,22.10
2023-04-09T09:33:51.839Z,19.00
2023-04-09T09:36:39.499Z,19.88
2023-04-09T09:39:10.616Z,20.55
2023-04-09T09:41:38.385Z,17.58
2023-04-09T09:44:07.452Z,19.23
2023-04-09T09:46:40.039Z,18.02
2023-04-09T09:49:07.680Z,18.83
2023-04-09T09:51:37.365Z,20.13
2023-04-09T09:54:04.822Z,17.58
2023-04-09T09:56:36.291Z,18.27
2023-04-09T09:59:12.729Z,19.10
2023-04-09T10:01:41.421Z,20.98
2023-04-09T10:04:13.695Z,15.57
2023-04-09T10:06:44.503Z,16.88
2023-04-09T10:09:12.467Z,16.13
2023-04-09T10:11:42.783Z,16.42
2023-04-09T10:14:10.725Z,14.93
2023-04-09T10:16:38.134Z,15.20
2023-04-09T10:19:07.125Z,12.40
2023-04-09T10:21:37.322Z,13.98
2023-04-09T10:24:06.760Z,14.60
2023-04-09T10:26:37.288Z,13.88
2023-04-09T10:29:07.206Z,14.85
2023-04-09T10:31:47.747Z,16.40
2023-04-09T10:34:25.121Z,15.25
2023-04-09T10:36:53.817Z,16.88
2023-04-09T10:39:21.231Z,15.50
2023-04-09T10:41:49.893Z,14.65
2023-04-09T10:44:32.080Z,14.57
2023-04-09T10:46:59.740Z,15.07
2023-04-09T10:49:27.784Z,15.70
2023-04-09T10:51:55.191Z,16.08
2023-04-09T10:54:34.939Z,15.73
2023-04-09T10:57:08.217Z,14.98
2023-04-09T10:59:35.638Z,15.32
2023-04-09T11:02:03.336Z,15.07
2023-04-09T11:04:40.153Z,15.07
2023-04-09T11:07:07.689Z,15.77
2023-04-09T11:09:38.149Z,13.27
2023-04-09T11:12:05.600Z,16.20
2023-04-09T11:14:34.277Z,14.75
2023-04-09T11:17:06.148Z,14.68
2023-04-09T11:19:36.807Z,14.85
2023-04-09T11:22:07.262Z,16.08
2023-04-09T11:24:41.633Z,17.17
2023-04-09T11:27:09.290Z,12.73
2023-04-09T11:29:37.134Z,14.93
2023-04-09T11:32:07.531Z,15.57
2023-04-09T11:34:34.956Z,12.73
2023-04-09T11:37:07.211Z,15.10
2023-04-09T11:39:37.664Z,14.70
2023-04-09T11:42:05.025Z,13.13
2023-04-09T11:44:32.563Z,14.43
2023-04-09T11:47:00.163Z,13.77
2023-04-09T11:49:27.609Z,13.52
2023-04-09T11:51:55.016Z,15.05
2023-04-09T11:54:22.363Z,12.73
2023-04-09T11:56:56.245Z,12.32
2023-04-09T11:59:23.612Z,13.65
2023-04-09T12:01:52.093Z,14.50
2023-04-09T12:04:22.470Z,14.13
2023-04-09T12:06:50.055Z,12.30
2023-04-09T12:09:18.030Z,12.27
2023-04-09T12:11:46.545Z,12.07
2023-04-09T12:14:14.746Z,14.10
2023-04-09T12:16:44.130Z,12.52
2023-04-09T12:19:15.311Z,13.00
2023-04-09T12:22:00.810Z,12.20
2023-04-09T12:27:00.344Z,12.30
2023-04-09T12:29:30.025Z,12.25
2023-04-09T12:31:57.659Z,11.93
2023-04-09T12:34:25.075Z,14.23
2023-04-09T12:36:52.505Z,14.07
2023-04-09T12:39:21.106Z,12.00
2023-04-09T12:41:48.501Z,13.90
2023-04-09T12:44:15.868Z,13.75
2023-04-09T12:46:43.238Z,13.25
2023-04-09T12:49:10.632Z,14.82
2023-04-09T12:51:37.955Z,12.73
2023-04-09T12:54:05.809Z,12.05
2023-04-09T12:56:33.136Z,13.57
2023-04-09T12:59:00.854Z,12.60
2023-04-09T13:01:28.182Z,11.77
2023-04-09T13:03:55.759Z,12.18
2023-04-09T13:06:23.217Z,12.43
2023-04-09T13:08:50.530Z,11.77
2023-04-09T13:11:17.879Z,12.57
2023-04-09T13:13:45.171Z,10.82
2023-04-09T13:16:12.552Z,11.63
2023-04-09T13:18:39.907Z,12.18
2023-04-09T13:21:07.549Z,12.30
2023-04-09T13:23:34.940Z,12.45
2023-04-09T13:26:02.239Z,13.13
2023-04-09T13:28:29.594Z,13.10
2023-04-09T13:30:57.182Z,14.05
2023-04-09T13:33:24.571Z,12.00
2023-04-09T13:35:51.990Z,12.40
2023-04-09T13:38:19.425Z,11.45
2023-04-09T13:40:46.773Z,11.45
2023-04-09T13:43:14.077Z,11.88
2023-04-09T13:45:41.667Z,10.88
2023-04-09T13:48:09.025Z,10.65
2023-04-09T13:50:36.482Z,13.20
2023-04-09T13:53:05.479Z,11.40
2023-04-09T13:55:32.838Z,12.10
2023-04-09T13:58:00.158Z,10.57
2023-04-09T14:00:27.831Z,12.70
2023-04-09T14:02:55.225Z,10.80
2023-04-09T14:05:22.621Z,18.52
2023-04-09T14:07:49.919Z,14.05
2023-04-09T14:10:17.317Z,12.20
2023-04-09T14:12:44.612Z,12.32
2023-04-09T14:15:12.124Z,12.10
2023-04-09T14:17:40.608Z,11.90
2023-04-09T14:20:08.318Z,11.70
2023-04-09T14:22:35.654Z,10.63
2023-04-09T14:25:03.080Z,11.48
2023-04-09T14:27:30.937Z,11.77
2023-04-09T14:29:58.280Z,10.48
2023-04-09T14:32:25.720Z,10.30
2023-04-09T14:34:53.108Z,11.07
2023-04-09T14:37:20.424Z,10.80
2023-04-09T14:39:47.814Z,10.05
2023-04-09T14:42:15.204Z,9.63
2023-04-09T14:44:42.585Z,10.55
2023-04-09T14:47:09.906Z,10.55
2023-04-09T14:49:37.290Z,10.48
2023-04-09T14:52:04.659Z,10.02
2023-04-09T14:54:32.421Z,10.95
2023-04-09T14:56:59.783Z,11.13
2023-04-09T14:59:27.357Z,11.50
2023-04-09T15:01:54.769Z,9.60
2023-04-09T15:04:23.800Z,12.30
2023-04-09T15:06:51.548Z,10.65
2023-04-09T15:09:18.998Z,10.13
2023-04-09T15:11:46.358Z,11.77
2023-04-09T15:14:13.698Z,11.23
2023-04-09T15:16:41.043Z,11.32
2023-04-09T15:19:08.425Z,10.77
2023-04-09T15:21:35.790Z,10.82
2023-04-09T15:24:03.895Z,10.82
2023-04-09T15:26:31.458Z,11.05
2023-04-09T15:29:04.190Z,10.15
2023-04-09T15:31:31.676Z,11.13
2023-04-09T15:33:59.033Z,11.15
2023-04-09T15:36:27.161Z,11.38
2023-04-09T15:38:54.795Z,10.25
2023-04-09T15:41:24.099Z,11.98
2023-04-09T15:43:52.006Z,10.38
2023-04-09T15:46:19.742Z,10.77
2023-04-09T15:48:47.079Z,10.35
2023-04-09T15:51:14.452Z,10.75
2023-04-09T15:53:41.738Z,10.07
2023-04-09T15:56:11.947Z,11.30
2023-04-09T15:58:39.418Z,11.32
2023-04-09T16:01:07.449Z,11.48
2023-04-09T16:03:39.994Z,10.32
2023-04-09T16:06:08.346Z,12.05
2023-04-09T16:08:38.682Z,10.73
2023-04-09T16:11:07.158Z,10.82
2023-04-09T16:13:34.936Z,10.80
2023-04-09T16:16:02.478Z,10.60
2023-04-09T16:18:30.212Z,12.02
2023-04-09T16:20:58.201Z,10.90
2023-04-09T16:23:26.209Z,12.13
2023-04-09T16:25:54.142Z,10.52
2023-04-09T16:28:22.176Z,11.20
2023-04-09T16:30:51.005Z,10.55
2023-04-09T16:33:18.380Z,11.32
2023-04-09T16:35:45.899Z,10.40
2023-04-09T16:38:13.417Z,10.82
2023-04-09T16:40:40.957Z,11.20
2023-04-09T16:43:08.253Z,10.10
2023-04-09T16:45:35.943Z,11.05
2023-04-09T16:48:03.601Z,11.35
2023-04-09T16:50:31.068Z,10.77
2023-04-09T16:53:00.218Z,10.15
2023-04-09T16:55:27.663Z,9.55
2023-04-09T16:57:56.912Z,10.70
2023-04-09T17:00:24.336Z,11.48
2023-04-09T17:02:52.133Z,10.32
2023-04-09T17:05:19.797Z,10.75
2023-04-09T17:07:47.704Z,9.88
2023-04-09T17:10:15.388Z,10.43
2023-04-09T17:12:42.931Z,9.82
2023-04-09T17:15:10.781Z,9.90
2023-04-09T17:17:38.384Z,10.40
2023-04-09T17:20:06.241Z,11.10
2023-04-09T17:22:35.256Z,12.73
2023-04-09T17:25:03.154Z,10.73
2023-04-09T17:27:30.480Z,11.65
2023-04-09T17:29:57.898Z,11.80
2023-04-09T17:32:25.664Z,12.18
2023-04-09T17:34:53.140Z,11.65
2023-04-09T17:37:20.697Z,11.30
2023-04-09T17:39:48.095Z,10.80
2023-04-09T17:42:15.474Z,11.25
2023-04-09T17:44:43.978Z,11.75
2023-04-09T17:47:12.563Z,11.00
2023-04-09T17:49:40.241Z,11.15
2023-04-09T17:52:07.584Z,10.23
2023-04-09T17:54:35.354Z,11.60
2023-04-09T17:57:04.318Z,8.93
2023-04-09T17:59:31.903Z,10.05
2023-04-09T18:01:59.372Z,9.68
2023-04-09T18:04:27.224Z,9.15
2023-04-09T18:06:55.892Z,9.82
2023-04-09T18:09:23.309Z,12.57
2023-04-09T18:11:55.122Z,9.10
2023-04-09T18:14:22.567Z,9.00
2023-04-09T18:16:49.972Z,9.38
2023-04-09T18:19:17.356Z,11.77
2023-04-09T18:21:44.696Z,10.60
2023-04-09T18:24:12.152Z,10.60
2023-04-09T18:26:39.576Z,10.23
2023-04-09T18:29:06.969Z,9.75
2023-04-09T18:31:34.399Z,10.00
2023-04-09T18:34:01.826Z,8.38
2023-04-09T18:36:29.339Z,8.27
2023-04-09T18:38:58.179Z,8.52
2023-04-09T18:41:26.266Z,12.35
2023-04-09T18:43:54.367Z,23.23
2023-04-09T18:46:22.976Z,18.83
2023-04-09T18:48:50.673Z,17.40
2023-04-09T18:51:20.279Z,14.82
2023-04-09T18:53:53.022Z,11.68
2023-04-09T18:56:21.273Z,17.40
2023-04-09T18:58:49.339Z,11.30
2023-04-09T19:01:17.722Z,26.77
2023-04-09T19:03:45.791Z,31.50
2023-04-09T19:06:14.755Z,12.10
2023-04-09T19:08:42.405Z,10.60
2023-04-09T19:11:09.808Z,72.70
2023-04-09T19:13:38.125Z,22.80
2023-04-09T19:16:06.367Z,13.25
2023-04-09T19:18:34.631Z,17.60
2023-04-09T19:21:02.072Z,11.57
2023-04-09T19:23:30.184Z,11.30
2023-04-09T19:25:57.665Z,12.77
2023-04-09T19:28:25.226Z,11.07
2023-04-09T19:30:53.267Z,13.40
2023-04-09T19:33:21.725Z,12.32
2023-04-09T19:35:49.684Z,12.55
2023-04-09T19:38:17.525Z,13.25
2023-04-09T19:40:45.225Z,13.13
2023-04-09T19:43:12.834Z,12.02
2023-04-09T19:45:40.562Z,12.60
2023-04-09T19:48:08.363Z,12.63
2023-04-09T19:50:40.630Z,12.18
2023-04-09T19:53:08.141Z,11.27
2023-04-09T19:55:35.590Z,12.35
2023-04-09T19:58:03.668Z,12.85
2023-04-09T20:00:31.578Z,12.35
2023-04-09T20:02:59.108Z,11.55
2023-04-09T20:05:27.249Z,13.13
2023-04-09T20:07:54.792Z,12.27
2023-04-09T20:10:22.191Z,13.05
2023-04-09T20:12:50.089Z,12.82
2023-04-09T20:15:20.141Z,12.18
2023-04-09T20:17:48.420Z,12.50
2023-04-09T20:20:20.154Z,12.13
2023-04-09T20:22:55.543Z,11.80
2023-04-09T20:25:24.221Z,12.32
2023-04-09T20:27:54.601Z,12.95
2023-04-09T20:30:22.870Z,12.48
2023-04-09T20:32:50.307Z,13.23
2023-04-09T20:35:17.813Z,12.55
2023-04-09T20:37:45.211Z,13.27
2023-04-09T20:40:12.926Z,12.55
2023-04-09T20:42:41.681Z,12.93
2023-04-09T20:45:09.818Z,12.63
2023-04-09T20:47:37.195Z,12.43
2023-04-09T20:50:05.156Z,13.60
2023-04-09T20:52:32.507Z,13.40
2023-04-09T20:54:59.951Z,12.77
2023-04-09T20:57:27.501Z,14.02
2023-04-09T20:59:54.955Z,13.18
2023-04-09T21:02:22.525Z,12.98
2023-04-09T21:04:49.911Z,13.82
2023-04-09T21:07:17.259Z,14.02
2023-04-09T21:09:44.640Z,14.27
2023-04-09T21:12:11.965Z,13.73
2023-04-09T21:14:39.326Z,14.32
2023-04-09T21:17:06.742Z,14.13
2023-04-09T21:19:34.160Z,15.27
2023-04-09T21:22:01.494Z,15.73
2023-04-09T21:24:28.797Z,16.80
2023-04-09T21:26:57.062Z,15.57
2023-04-09T21:29:24.392Z,16.65
2023-04-09T21:31:51.776Z,18.30
2023-04-09T21:34:19.088Z,18.77
2023-04-09T21:36:46.709Z,16.70
2023-04-09T21:39:14.064Z,17.98
2023-04-09T21:41:41.426Z,18.38
2023-04-09T21:44:08.882Z,17.58
2023-04-09T21:46:37.261Z,18.08
2023-04-09T21:49:05.670Z,17.23
2023-04-09T21:51:33.351Z,17.95
2023-04-09T21:54:04.990Z,18.85
2023-04-09T21:56:33.639Z,17.38
2023-04-09T21:59:01.433Z,18.23
2023-04-09T22:01:30.737Z,16.40
2023-04-09T22:03:59.921Z,18.98
2023-04-09T22:06:27.572Z,17.60
2023-04-09T22:08:56.727Z,18.38
2023-04-09T22:11:28.577Z,17.73
2023-04-09T22:13:59.152Z,19.13
2023-04-09T22:16:27.291Z,17.08
2023-04-09T22:18:55.379Z,17.58
2023-04-09T22:21:22.959Z,17.25
2023-04-09T22:23:50.314Z,17.77
2023-04-09T22:26:17.652Z,16.85
2023-04-09T22:28:44.969Z,16.02
2023-04-09T22:31:12.739Z,16.77
2023-04-09T22:33:40.134Z,16.13
2023-04-09T22:36:07.673Z,16.42
2023-04-09T22:38:35.115Z,15.20
2023-04-09T22:41:02.470Z,16.60
2023-04-09T22:43:29.840Z,16.27
2023-04-09T22:45:57.472Z,16.60
2023-04-09T22:48:24.957Z,16.38
2023-04-09T22:50:52.326Z,17.17
2023-04-09T22:53:19.769Z,15.68
2023-04-09T22:55:47.730Z,16.98
2023-04-09T22:58:15.818Z,15.48
2023-04-09T23:00:43.427Z,16.27
2023-04-09T23:03:11.366Z,15.18
2023-04-09T23:05:38.940Z,16.42
2023-04-09T23:08:06.724Z,13.90
2023-04-09T23:10:34.445Z,14.88
2023-04-09T23:13:01.985Z,14.27
2023-04-09T23:15:29.375Z,15.07
2023-04-09T23:17:56.955Z,14.90
2023-04-09T23:20:24.432Z,14.73
2023-04-09T23:22:51.854Z,14.57
2023-04-09T23:25:20.389Z,16.17
2023-04-09T23:27:47.702Z,14.65
2023-04-09T23:30:18.425Z,15.27
2023-04-09T23:32:45.983Z,15.85
2023-04-09T23:35:13.672Z,15.52
2023-04-09T23:37:42.561Z,14.07
2023-04-09T23:40:10.313Z,15.13
2023-04-09T23:42:37.625Z,15.60
2023-04-09T23:45:07.479Z,14.70
2023-04-09T23:47:35.770Z,14.63
2023-04-09T23:50:07.401Z,14.63
2023-04-09T23:52:38.527Z,15.38
2023-04-09T23:55:09.786Z,14.65
2023-04-09T23:57:37.884Z,15.40
